createdAt,value
2023-04-27T00:00:28.427Z,12.77
2023-04-27T00:02:56.857Z,9.38
2023-04-27T00:05:25.436Z,8.20
2023-04-27T00:07:53.851Z,8.23
2023-04-27T00:10:22.305Z,9.80
2023-04-27T00:12:50.681Z,12.63
2023-04-27T00:15:18.961Z,10.20
2023-04-27T00:17:48.724Z,18.83
2023-04-27T00:20:17.075Z,7.43
2023-04-27T00:22:45.740Z,9.25
2023-04-27T00:25:13.856Z,9.82
2023-04-27T00:27:42.234Z,11.10
2023-04-27T00:30:11.482Z,11.52
2023-04-27T00:32:39.749Z,9.00
2023-04-27T00:35:10.660Z,9.52
2023-04-27T00:37:38.818Z,10.10
2023-04-27T00:40:08.654Z,8.82
2023-04-27T00:42:37.376Z,12.02
2023-04-27T00:45:06.314Z,14.85
2023-04-27T00:47:35.139Z,11.25
2023-04-27T00:50:04.109Z,10.02
2023-04-27T00:52:33.862Z,11.70
2023-04-27T00:55:05.191Z,12.95
2023-04-27T00:57:35.774Z,13.10
2023-04-27T01:00:07.334Z,10.77
2023-04-27T01:02:37.119Z,13.63
2023-04-27T01:05:08.836Z,13.13
2023-04-27T01:07:40.284Z,11.82
2023-04-27T01:10:09.635Z,9.48
2023-04-27T01:12:37.967Z,11.02
2023-04-27T01:15:08.024Z,13.48
2023-04-27T01:17:36.626Z,7.30
2023-04-27T01:20:07.995Z,15.52
2023-04-27T01:22:36.338Z,7.07
2023-04-27T01:25:06.732Z,12.23
2023-04-27T01:27:35.275Z,17.52
2023-04-27T01:30:03.722Z,10.07
2023-04-27T01:32:31.875Z,16.02
2023-04-27T01:35:00.155Z,9.68
2023-04-27T01:37:28.550Z,7.75
2023-04-27T01:39:56.672Z,11.35
2023-04-27T01:42:26.180Z,8.23
2023-04-27T01:44:55.016Z,10.02
2023-04-27T01:47:23.252Z,11.63
2023-04-27T01:49:51.835Z,10.40
2023-04-27T01:52:20.326Z,11.27
2023-04-27T01:54:48.582Z,11.65
2023-04-27T01:57:17.738Z,7.38
2023-04-27T01:59:47.425Z,10.38
2023-04-27T02:02:15.641Z,12.23
2023-04-27T02:04:45.521Z,13.57
2023-04-27T02:07:13.789Z,10.88
2023-04-27T02:09:42.000Z,8.90
2023-04-27T02:12:10.281Z,9.40
2023-04-27T02:14:38.911Z,9.05
2023-04-27T02:17:08.538Z,10.75
2023-04-27T02:19:36.790Z,11.23
2023-04-27T02:22:05.572Z,11.90
2023-04-27T02:24:33.869Z,13.48
2023-04-27T02:27:02.010Z,11.23
2023-04-27T02:29:32.203Z,14.77
2023-04-27T02:32:00.806Z,9.13
2023-04-27T02:34:30.465Z,14.57
2023-04-27T02:36:59.214Z,14.80
2023-04-27T02:39:27.513Z,13.75
2023-04-27T02:41:55.789Z,19.30
2023-04-27T02:44:24.216Z,12.75
2023-04-27T02:46:52.469Z,11.48
2023-04-27T02:49:21.064Z,9.57
2023-04-27T02:51:50.841Z,15.07
2023-04-27T02:54:19.071Z,16.20
2023-04-27T02:56:47.263Z,15.30
2023-04-27T02:59:15.914Z,15.75
2023-04-27T03:01:44.640Z,11.48
2023-04-27T03:04:14.223Z,14.48
2023-04-27T03:06:42.867Z,19.65
2023-04-27T03:09:12.880Z,16.20
2023-04-27T03:11:41.455Z,16.60
2023-04-27T03:14:09.730Z,18.48
2023-04-27T03:16:37.984Z,20.95
2023-04-27T03:19:06.362Z,10.73
2023-04-27T03:21:34.654Z,13.85
2023-04-27T03:24:02.960Z,12.77
2023-04-27T03:26:33.345Z,18.40
2023-04-27T03:29:01.794Z,14.52
2023-04-27T03:31:29.978Z,15.80
2023-04-27T03:33:58.190Z,16.90
2023-04-27T03:36:27.133Z,16.30
2023-04-27T03:38:55.334Z,17.23
2023-04-27T03:41:23.536Z,12.32
2023-04-27T03:43:53.664Z,19.15
2023-04-27T03:46:21.792Z,18.63
2023-04-27T03:48:50.220Z,14.07
2023-04-27T03:51:19.291Z,17.25
2023-04-27T03:53:47.524Z,15.75
2023-04-27T03:56:15.833Z,17.02
2023-04-27T03:58:44.008Z,19.35
2023-04-27T04:01:14.956Z,13.43
2023-04-27T04:03:43.357Z,23.90
2023-04-27T04:06:12.368Z,21.30
2023-04-27T04:08:41.101Z,19.00
2023-04-27T04:11:09.319Z,17.63
2023-04-27T04:13:38.173Z,20.92
2023-04-27T04:16:08.379Z,23.35
2023-04-27T04:18:38.601Z,25.25
2023-04-27T04:21:10.278Z,20.65
2023-04-27T04:23:41.291Z,22.67
2023-04-27T04:26:10.059Z,25.75
2023-04-27T04:28:38.727Z,21.77
2023-04-27T04:31:09.863Z,30.27
2023-04-27T04:33:39.584Z,24.25
2023-04-27T04:36:08.434Z,28.17
2023-04-27T04:38:36.688Z,27.67
2023-04-27T04:41:04.992Z,26.40
2023-04-27T04:43:33.533Z,30.95
2023-04-27T04:46:01.794Z,25.58
2023-04-27T04:48:30.443Z,33.58
2023-04-27T04:50:59.934Z,26.63
2023-04-27T04:53:28.208Z,33.03
2023-04-27T04:55:56.551Z,27.80
2023-04-27T04:58:24.942Z,32.25
2023-04-27T05:00:53.115Z,36.00
2023-04-27T05:03:21.727Z,27.23
2023-04-27T05:05:50.118Z,27.40
2023-04-27T05:08:19.770Z,36.70
2023-04-27T05:10:51.355Z,38.92
2023-04-27T05:15:47.694Z,24.08
2023-04-27T05:18:15.902Z,31.92
2023-04-27T05:20:44.249Z,27.42
2023-04-27T05:23:12.706Z,25.48
2023-04-27T05:25:43.972Z,26.95
2023-04-27T05:28:12.458Z,25.38
2023-04-27T05:30:40.715Z,25.77
2023-04-27T05:33:09.076Z,29.13
2023-04-27T05:35:37.472Z,26.52
2023-04-27T05:38:05.961Z,32.08
2023-04-27T05:40:34.546Z,28.30
2023-04-27T05:43:05.811Z,36.28
2023-04-27T05:45:34.518Z,33.22
2023-04-27T05:48:02.811Z,38.63
2023-04-27T05:50:31.087Z,41.03
2023-04-27T05:52:59.336Z,35.20
2023-04-27T05:55:27.496Z,43.47
2023-04-27T05:58:07.177Z,31.98
2023-04-27T06:00:39.051Z,38.47
2023-04-27T06:03:07.477Z,34.65
2023-04-27T06:05:36.030Z,28.33
2023-04-27T06:08:04.373Z,38.20
2023-04-27T06:10:32.567Z,34.90
2023-04-27T06:13:00.793Z,32.75
2023-04-27T06:15:29.456Z,27.98
2023-04-27T06:17:59.069Z,20.98
2023-04-27T06:20:27.315Z,24.17
2023-04-27T06:22:57.248Z,25.98
2023-04-27T06:25:27.468Z,17.30
2023-04-27T06:27:55.727Z,21.98
2023-04-27T06:30:24.255Z,23.23
2023-04-27T06:32:53.348Z,20.92
2023-04-27T06:35:23.534Z,20.83
2023-04-27T06:37:52.222Z,25.77
2023-04-27T06:40:20.840Z,23.35
2023-04-27T06:42:49.478Z,24.98
2023-04-27T06:45:18.026Z,25.30
2023-04-27T06:47:46.626Z,27.88
2023-04-27T06:50:16.552Z,23.00
2023-04-27T06:52:46.235Z,29.83
2023-04-27T06:55:14.674Z,24.73
2023-04-27T06:57:42.905Z,24.88
2023-04-27T07:00:13.450Z,28.88
2023-04-27T07:02:41.755Z,23.63
2023-04-27T07:05:10.307Z,19.55
2023-04-27T07:07:38.544Z,19.83
2023-04-27T07:10:10.583Z,23.13
2023-04-27T07:12:38.830Z,24.45
2023-04-27T07:15:08.416Z,24.17
2023-04-27T07:17:36.632Z,28.58
2023-04-27T07:20:06.419Z,27.90
2023-04-27T07:22:34.805Z,23.85
2023-04-27T07:25:04.426Z,31.23
2023-04-27T07:27:35.974Z,19.15
2023-04-27T07:32:32.697Z,28.60
2023-04-27T07:35:01.003Z,22.48
2023-04-27T07:37:29.141Z,23.77
2023-04-27T07:39:57.890Z,25.33
2023-04-27T07:42:26.349Z,22.95
2023-04-27T07:44:57.257Z,25.67
2023-04-27T07:47:25.497Z,27.38
2023-04-27T07:49:53.742Z,23.88
2023-04-27T07:52:21.919Z,26.42
2023-04-27T07:54:50.242Z,28.38
2023-04-27T07:57:18.756Z,37.10
2023-04-27T07:59:47.584Z,27.98
2023-04-27T08:02:20.070Z,25.58
2023-04-27T08:04:50.056Z,30.50
2023-04-27T08:07:21.703Z,21.42
2023-04-27T08:09:52.374Z,39.83
2023-04-27T08:12:20.661Z,25.88
2023-04-27T08:14:48.891Z,19.88
2023-04-27T08:17:18.850Z,31.27
2023-04-27T08:19:47.039Z,31.23
2023-04-27T08:22:15.520Z,30.80
2023-04-27T08:24:43.735Z,29.58
2023-04-27T08:27:12.759Z,39.05
2023-04-27T08:29:45.927Z,25.38
2023-04-27T08:32:14.135Z,41.50
2023-04-27T08:34:44.990Z,26.85
2023-04-27T08:37:13.281Z,26.13
2023-04-27T08:39:41.877Z,27.05
2023-04-27T08:42:13.368Z,27.70
2023-04-27T08:44:41.788Z,32.50
2023-04-27T08:47:10.433Z,30.45
2023-04-27T08:49:41.634Z,25.00
2023-04-27T08:52:15.396Z,31.52
2023-04-27T08:54:43.808Z,29.55
2023-04-27T08:57:13.416Z,33.85
2023-04-27T08:59:42.046Z,22.25
2023-04-27T09:02:21.061Z,36.03
2023-04-27T09:04:51.074Z,35.55
2023-04-27T09:07:20.876Z,27.02
2023-04-27T09:09:49.748Z,23.02
2023-04-27T09:12:20.840Z,29.65
2023-04-27T09:14:58.369Z,17.38
2023-04-27T09:17:28.099Z,27.88
2023-04-27T09:20:09.190Z,27.60
2023-04-27T09:22:49.127Z,27.23
2023-04-27T09:25:29.043Z,26.40
2023-04-27T09:27:58.322Z,40.72
2023-04-27T09:30:27.014Z,29.52
2023-04-27T09:32:57.334Z,24.70
2023-04-27T09:35:27.001Z,30.75
2023-04-27T09:38:00.119Z,30.63
2023-04-27T09:40:30.953Z,41.75
2023-04-27T09:43:01.913Z,29.13
2023-04-27T09:45:30.625Z,28.80
2023-04-27T09:48:00.056Z,25.27
2023-04-27T09:50:28.328Z,42.55
2023-04-27T09:52:58.243Z,39.10
2023-04-27T09:55:31.235Z,33.10
2023-04-27T09:58:10.819Z,37.55
2023-04-27T10:00:53.509Z,28.48
2023-04-27T10:03:29.363Z,30.13
2023-04-27T10:06:36.471Z,30.75
2023-04-27T10:09:06.827Z,26.55
2023-04-27T10:11:41.857Z,23.52
2023-04-27T10:14:11.346Z,28.30
2023-04-27T10:16:46.775Z,30.05
2023-04-27T10:19:15.904Z,29.77
2023-04-27T10:22:00.446Z,26.52
2023-04-27T10:24:40.955Z,31.55
2023-04-27T10:27:12.459Z,25.48
2023-04-27T10:29:42.236Z,32.95
2023-04-27T10:32:13.284Z,28.77
2023-04-27T10:34:42.722Z,28.30
2023-04-27T10:37:14.226Z,27.80
2023-04-27T10:42:29.506Z,27.17
2023-04-27T10:44:59.585Z,31.50
2023-04-27T10:47:39.417Z,32.85
2023-04-27T10:50:11.341Z,29.02
2023-04-27T10:52:42.452Z,34.63
2023-04-27T10:55:19.324Z,24.42
2023-04-27T10:57:49.433Z,29.08
2023-04-27T11:00:23.872Z,27.20
2023-04-27T11:02:52.740Z,32.90
2023-04-27T11:05:22.541Z,31.45
2023-04-27T11:07:50.970Z,25.15
2023-04-27T11:10:20.763Z,23.33
2023-04-27T11:12:48.996Z,29.13
2023-04-27T11:15:17.342Z,25.00
2023-04-27T11:17:45.868Z,26.75
2023-04-27T11:20:16.549Z,23.85
2023-04-27T11:22:48.420Z,27.07
2023-04-27T11:25:16.676Z,28.55
2023-04-27T11:27:46.208Z,31.30
2023-04-27T11:30:22.329Z,20.60
2023-04-27T11:32:51.786Z,24.13
2023-04-27T11:35:21.937Z,34.65
2023-04-27T11:37:59.658Z,33.60
2023-04-27T11:40:29.212Z,21.30
2023-04-27T11:43:04.226Z,31.35
2023-04-27T11:45:32.366Z,25.85
2023-04-27T11:48:01.016Z,23.17
2023-04-27T11:50:29.329Z,27.30
2023-04-27T11:53:02.354Z,21.27
2023-04-27T11:55:31.386Z,21.67
2023-04-27T11:58:00.219Z,24.38
2023-04-27T12:00:29.791Z,22.23
2023-04-27T12:02:59.524Z,27.40
2023-04-27T12:05:28.016Z,32.25
2023-04-27T12:07:56.672Z,28.30
2023-04-27T12:10:25.640Z,28.25
2023-04-27T12:12:53.849Z,45.30
2023-04-27T12:15:21.932Z,29.75
2023-04-27T12:17:51.577Z,35.42
2023-04-27T12:20:19.804Z,28.65
2023-04-27T12:22:48.478Z,38.83
2023-04-27T12:25:17.636Z,32.25
2023-04-27T12:27:47.875Z,34.67
2023-04-27T12:30:16.626Z,25.48
2023-04-27T12:32:45.018Z,41.38
2023-04-27T12:35:14.576Z,33.95
2023-04-27T12:37:42.969Z,33.30
2023-04-27T12:40:12.659Z,35.92
2023-04-27T12:42:43.091Z,34.15
2023-04-27T12:45:12.003Z,36.40
2023-04-27T12:47:58.280Z,41.08
2023-04-27T12:50:30.033Z,32.65
2023-04-27T12:52:58.195Z,37.15
2023-04-27T12:55:33.880Z,36.95
2023-04-27T12:58:05.090Z,44.20
2023-04-27T13:00:34.318Z,41.03
2023-04-27T13:03:02.748Z,35.03
2023-04-27T13:05:32.559Z,36.72
2023-04-27T13:08:00.786Z,32.22
2023-04-27T13:10:29.893Z,27.05
2023-04-27T13:12:59.010Z,34.22
2023-04-27T13:15:27.266Z,34.90
2023-04-27T13:17:56.859Z,31.65
2023-04-27T13:20:25.214Z,25.58
2023-04-27T13:22:54.873Z,31.35
2023-04-27T13:25:24.057Z,35.17
2023-04-27T13:27:58.012Z,39.28
2023-04-27T13:30:26.330Z,34.22
2023-04-27T13:32:54.704Z,29.48
2023-04-27T13:35:23.986Z,28.77
2023-04-27T13:37:54.497Z,33.83
2023-04-27T13:40:26.080Z,30.33
2023-04-27T13:42:54.266Z,36.30
2023-04-27T13:45:27.038Z,34.97
2023-04-27T13:47:55.296Z,52.53
2023-04-27T13:50:23.563Z,39.78
2023-04-27T13:52:51.828Z,41.95
2023-04-27T13:55:21.289Z,45.35
2023-04-27T13:57:49.857Z,38.40
2023-04-27T14:00:18.584Z,29.17
2023-04-27T14:02:46.851Z,37.22
2023-04-27T14:05:15.259Z,39.42
2023-04-27T14:07:43.426Z,40.13
2023-04-27T14:10:12.189Z,36.10
2023-04-27T14:12:41.875Z,29.00
2023-04-27T14:15:10.938Z,35.30
2023-04-27T14:17:39.301Z,39.85
2023-04-27T14:20:08.852Z,38.95
2023-04-27T14:22:37.677Z,34.72
2023-04-27T14:25:06.588Z,35.38
2023-04-27T14:27:34.723Z,29.95
2023-04-27T14:30:04.756Z,36.58
2023-04-27T14:32:36.437Z,33.80
2023-04-27T14:35:05.055Z,40.10
2023-04-27T14:37:33.492Z,34.58
2023-04-27T14:40:03.262Z,33.05
2023-04-27T14:42:31.888Z,31.88
2023-04-27T14:45:00.051Z,33.17
2023-04-27T14:47:29.695Z,37.38
2023-04-27T14:49:57.914Z,43.72
2023-04-27T14:52:26.284Z,35.83
2023-04-27T14:54:55.762Z,29.67
2023-04-27T14:57:24.045Z,37.42
2023-04-27T14:59:52.273Z,39.40
2023-04-27T15:02:20.594Z,49.28
2023-04-27T15:04:50.376Z,47.67
2023-04-27T15:07:20.304Z,39.38
2023-04-27T15:09:48.565Z,40.60
2023-04-27T15:12:16.720Z,35.10
2023-04-27T15:14:44.824Z,35.70
2023-04-27T15:17:14.358Z,42.40
2023-04-27T15:19:42.590Z,42.40
2023-04-27T15:22:14.724Z,26.35
2023-04-27T15:24:42.981Z,27.60
2023-04-27T15:27:11.263Z,31.38
2023-04-27T15:29:39.447Z,32.13
2023-04-27T15:32:07.752Z,32.03
2023-04-27T15:34:36.094Z,34.60
2023-04-27T15:37:04.276Z,32.67
2023-04-27T15:39:33.854Z,36.30
2023-04-27T15:42:03.192Z,39.70
2023-04-27T15:44:31.335Z,33.97
2023-04-27T15:46:59.734Z,31.83
2023-04-27T15:49:28.627Z,30.00
2023-04-27T15:51:56.837Z,37.65
2023-04-27T15:54:25.447Z,41.42
2023-04-27T15:56:55.069Z,34.97
2023-04-27T15:59:25.154Z,39.67
2023-04-27T16:01:53.448Z,40.60
2023-04-27T16:04:22.413Z,28.05
2023-04-27T16:06:52.997Z,32.10
2023-04-27T16:09:21.384Z,23.92
2023-04-27T16:11:49.547Z,30.88
2023-04-27T16:14:19.067Z,27.38
2023-04-27T16:16:47.436Z,24.33
2023-04-27T16:19:16.185Z,26.60
2023-04-27T16:21:45.166Z,25.23
2023-04-27T16:24:13.633Z,24.00
2023-04-27T16:26:41.803Z,22.77
2023-04-27T16:29:10.023Z,31.25
2023-04-27T16:31:39.788Z,38.45
2023-04-27T16:34:07.947Z,41.85
2023-04-27T16:36:36.059Z,32.47
2023-04-27T16:39:05.284Z,31.08
2023-04-27T16:41:33.502Z,27.88
2023-04-27T16:44:01.737Z,29.38
2023-04-27T16:46:30.243Z,24.98
2023-04-27T16:49:00.290Z,25.63
2023-04-27T16:51:29.051Z,24.73
2023-04-27T16:53:57.274Z,33.55
2023-04-27T16:56:29.495Z,28.27
2023-04-27T16:58:58.054Z,29.63
2023-04-27T17:01:29.937Z,24.60
2023-04-27T17:04:01.234Z,23.73
2023-04-27T17:06:30.034Z,23.08
2023-04-27T17:08:59.009Z,27.95
2023-04-27T17:11:27.273Z,23.85
2023-04-27T17:13:56.096Z,23.38
2023-04-27T17:16:24.306Z,19.25
2023-04-27T17:18:52.734Z,27.85
2023-04-27T17:21:24.996Z,24.55
2023-04-27T17:23:53.358Z,25.45
2023-04-27T17:26:22.057Z,29.05
2023-04-27T17:28:50.934Z,33.22
2023-04-27T17:31:19.231Z,45.15
2023-04-27T17:33:47.501Z,26.33
2023-04-27T17:36:15.882Z,33.67
2023-04-27T17:38:46.576Z,34.85
2023-04-27T17:41:14.800Z,36.17
2023-04-27T17:43:43.067Z,38.95
2023-04-27T17:46:11.357Z,27.02
2023-04-27T17:48:39.841Z,32.67
2023-04-27T17:51:08.718Z,36.90
2023-04-27T17:53:39.763Z,25.67
2023-04-27T17:56:09.459Z,29.75
2023-04-27T17:58:37.820Z,28.50
2023-04-27T18:01:09.177Z,32.05
2023-04-27T18:03:37.962Z,32.88
2023-04-27T18:06:06.607Z,35.30
2023-04-27T18:08:34.812Z,28.63
2023-04-27T18:11:02.988Z,35.47
2023-04-27T18:13:33.076Z,34.03
2023-04-27T18:16:01.378Z,33.75
2023-04-27T18:18:30.008Z,27.80
2023-04-27T18:20:59.521Z,36.88
2023-04-27T18:23:27.833Z,28.33
2023-04-27T18:26:00.056Z,30.08
2023-04-27T18:28:28.345Z,29.33
2023-04-27T18:30:57.924Z,33.38
2023-04-27T18:33:26.100Z,27.95
2023-04-27T18:35:54.211Z,33.35
2023-04-27T18:38:22.359Z,32.15
2023-04-27T18:40:50.451Z,32.15
2023-04-27T18:43:18.760Z,28.25
2023-04-27T18:45:46.972Z,33.17
2023-04-27T18:48:16.534Z,31.00
2023-04-27T18:50:44.842Z,30.08
2023-04-27T18:53:12.997Z,29.20
2023-04-27T18:55:41.229Z,34.63
2023-04-27T18:58:09.373Z,29.60
2023-04-27T19:00:39.429Z,23.55
2023-04-27T19:03:07.849Z,26.42
2023-04-27T19:05:37.812Z,29.13
2023-04-27T19:08:06.171Z,30.58
2023-04-27T19:10:34.487Z,34.42
2023-04-27T19:13:02.991Z,31.70
2023-04-27T19:15:31.199Z,26.02
2023-04-27T19:18:07.054Z,31.27
2023-04-27T19:20:40.235Z,27.02
2023-04-27T19:23:09.664Z,35.55
2023-04-27T19:25:37.907Z,28.92
2023-04-27T19:28:07.136Z,38.25
2023-04-27T19:30:35.579Z,28.42
2023-04-27T19:33:04.291Z,26.92
2023-04-27T19:35:32.584Z,31.02
2023-04-27T19:38:02.356Z,32.08
2023-04-27T19:40:30.660Z,32.05
2023-04-27T19:42:59.031Z,28.00
2023-04-27T19:45:27.305Z,35.28
2023-04-27T19:47:55.645Z,33.85
2023-04-27T19:50:24.273Z,26.88
2023-04-27T19:52:52.697Z,41.00
2023-04-27T19:55:22.471Z,33.00
2023-04-27T19:57:52.266Z,28.95
2023-04-27T20:00:20.634Z,34.72
2023-04-27T20:02:49.791Z,36.10
2023-04-27T20:05:18.234Z,30.02
2023-04-27T20:07:47.044Z,33.97
2023-04-27T20:10:15.314Z,27.98
2023-04-27T20:12:56.182Z,29.60
2023-04-27T20:15:25.037Z,30.10
2023-04-27T20:17:53.473Z,31.55
2023-04-27T20:20:22.010Z,35.70
2023-04-27T20:22:50.297Z,35.88
2023-04-27T20:25:19.761Z,31.52
2023-04-27T20:27:49.410Z,37.20
2023-04-27T20:30:17.526Z,32.97
2023-04-27T20:32:46.675Z,36.28
2023-04-27T20:35:15.417Z,39.00
2023-04-27T20:37:44.650Z,40.22
2023-04-27T20:40:17.734Z,43.60
2023-04-27T20:42:49.709Z,42.08
2023-04-27T20:45:18.988Z,34.67
2023-04-27T20:47:47.274Z,37.70
2023-04-27T20:50:15.637Z,40.38
2023-04-27T20:52:44.864Z,39.58
2023-04-27T20:55:13.150Z,48.80
2023-04-27T20:57:41.441Z,40.75
2023-04-27T21:00:13.034Z,40.83
2023-04-27T21:05:09.558Z,40.95
2023-04-27T21:07:37.916Z,34.70
2023-04-27T21:10:07.240Z,39.50
2023-04-27T21:12:35.672Z,41.03
2023-04-27T21:15:04.145Z,39.03
2023-04-27T21:17:33.638Z,36.90
2023-04-27T21:20:01.911Z,37.72
2023-04-27T21:22:30.102Z,37.20
2023-04-27T21:24:58.232Z,35.67
2023-04-27T21:27:26.321Z,44.75
2023-04-27T21:29:54.555Z,40.40
2023-04-27T21:32:22.871Z,35.00
2023-04-27T21:34:52.688Z,34.30
2023-04-27T21:37:21.652Z,37.85
2023-04-27T21:39:49.910Z,40.78
2023-04-27T21:42:18.162Z,38.15
2023-04-27T21:44:47.081Z,43.15
2023-04-27T21:47:16.239Z,43.58
2023-04-27T21:49:44.430Z,41.13
2023-04-27T21:52:14.336Z,43.55
2023-04-27T21:54:42.573Z,43.72
2023-04-27T21:57:10.963Z,43.08
2023-04-27T21:59:39.123Z,40.03
2023-04-27T22:02:07.560Z,45.83
2023-04-27T22:04:38.466Z,47.05
2023-04-27T22:07:08.003Z,38.42
2023-04-27T22:09:38.100Z,45.58
2023-04-27T22:12:06.713Z,37.75
2023-04-27T22:14:35.018Z,46.30
2023-04-27T22:17:03.138Z,40.33
2023-04-27T22:22:03.563Z,43.88
2023-04-27T22:24:31.736Z,44.13
2023-04-27T22:27:02.063Z,48.10
2023-04-27T22:29:30.274Z,41.72
2023-04-27T22:31:58.801Z,48.20
2023-04-27T22:34:27.560Z,54.53
2023-04-27T22:36:55.738Z,48.00
2023-04-27T22:39:24.758Z,49.65
2023-04-27T22:41:53.001Z,48.53
2023-04-27T22:44:22.681Z,52.45
2023-04-27T22:46:51.010Z,52.22
2023-04-27T22:49:19.178Z,55.92
2023-04-27T22:51:47.904Z,46.38
2023-04-27T22:54:16.347Z,49.88
2023-04-27T22:56:44.704Z,47.25
2023-04-27T22:59:13.502Z,47.30
2023-04-27T23:01:43.152Z,48.30
2023-04-27T23:04:11.673Z,50.55
2023-04-27T23:06:40.017Z,46.78
2023-04-27T23:09:08.227Z,52.22
2023-04-27T23:11:36.854Z,45.83
2023-04-27T23:14:05.047Z,43.30
2023-04-27T23:16:33.313Z,40.65
2023-04-27T23:19:02.940Z,41.92
2023-04-27T23:21:31.994Z,43.65
2023-04-27T23:24:00.296Z,45.20
2023-04-27T23:26:28.552Z,34.88
2023-04-27T23:28:57.597Z,35.05
2023-04-27T23:31:25.802Z,38.72
2023-04-27T23:33:54.102Z,40.10
2023-04-27T23:36:23.614Z,37.00
2023-04-27T23:38:52.326Z,30.42
2023-04-27T23:41:21.406Z,38.30
2023-04-27T23:43:49.554Z,35.70
2023-04-27T23:46:17.808Z,36.25
2023-04-27T23:48:46.321Z,31.98
2023-04-27T23:51:14.454Z,32.30
2023-04-27T23:53:44.172Z,34.42
2023-04-27T23:56:18.017Z,40.78
2023-04-27T23:58:46.305Z,36.47
